sensor_id;sensor_type;location;lat;lon;timestamp;P1;durP1;ratioP1;P2;durP2;ratioP2
4980;SDS011;2507;50.392;7.482;2022-12-24T00:01:13;8.00;;;2.13;;
4980;SDS011;2507;50.392;7.482;2022-12-24T00:03:38;6.43;;;2.13;;
4980;SDS011;2507;50.392;7.482;2022-12-24T00:06:07;7.00;;;2.00;;
4980;SDS011;2507;50.392;7.482;2022-12-24T00:08:34;12.20;;;2.80;;
4980;SDS011;2507;50.392;7.482;2022-12-24T00:10:59;5.17;;;1.63;;
4980;SDS011;2507;50.392;7.482;2022-12-24T00:13:25;14.50;;;2.83;;
4980;SDS011;2507;50.392;7.482;2022-12-24T00:15:50;11.97;;;2.10;;
4980;SDS011;2507;50.392;7.482;2022-12-24T00:18:15;8.60;;;2.47;;
4980;SDS011;2507;50.392;7.482;2022-12-24T00:20:41;11.53;;;3.43;;
4980;SDS011;2507;50.392;7.482;2022-12-24T00:23:09;11.90;;;3.07;;
4980;SDS011;2507;50.392;7.482;2022-12-24T00:25:34;9.27;;;2.70;;
4980;SDS011;2507;50.392;7.482;2022-12-24T00:27:59;10.97;;;2.40;;
4980;SDS011;2507;50.392;7.482;2022-12-24T00:30:24;11.90;;;2.73;;
4980;SDS011;2507;50.392;7.482;2022-12-24T00:32:50;10.50;;;2.30;;
4980;SDS011;2507;50.392;7.482;2022-12-24T00:35:15;10.50;;;2.57;;
4980;SDS011;2507;50.392;7.482;2022-12-24T00:37:40;13.80;;;3.20;;
4980;SDS011;2507;50.392;7.482;2022-12-24T00:40:06;16.10;;;3.60;;
4980;SDS011;2507;50.392;7.482;2022-12-24T00:42:31;10.23;;;3.03;;
4980;SDS011;2507;50.392;7.482;2022-12-24T00:44:57;7.67;;;2.07;;
4980;SDS011;2507;50.392;7.482;2022-12-24T00:47:22;9.03;;;2.47;;
4980;SDS011;2507;50.392;7.482;2022-12-24T00:49:47;7.40;;;2.60;;
4980;SDS011;2507;50.392;7.482;2022-12-24T00:52:12;7.83;;;2.60;;
4980;SDS011;2507;50.392;7.482;2022-12-24T00:54:38;13.90;;;3.00;;
4980;SDS011;2507;50.392;7.482;2022-12-24T00:57:03;7.80;;;2.60;;
4980;SDS011;2507;50.392;7.482;2022-12-24T00:59:28;8.10;;;1.90;;
4980;SDS011;2507;50.392;7.482;2022-12-24T01:01:53;12.13;;;2.50;;
4980;SDS011;2507;50.392;7.482;2022-12-24T01:04:19;10.53;;;2.70;;
4980;SDS011;2507;50.392;7.482;2022-12-24T01:07:02;6.83;;;2.27;;
4980;SDS011;2507;50.392;7.482;2022-12-24T01:09:28;9.30;;;2.13;;
4980;SDS011;2507;50.392;7.482;2022-12-24T01:11:53;9.50;;;2.70;;
4980;SDS011;2507;50.392;7.482;2022-12-24T01:14:18;15.87;;;2.30;;
4980;SDS011;2507;50.392;7.482;2022-12-24T01:16:44;7.70;;;2.17;;
4980;SDS011;2507;50.392;7.482;2022-12-24T01:19:09;9.53;;;2.27;;
4980;SDS011;2507;50.392;7.482;2022-12-24T01:21:35;15.03;;;2.83;;
4980;SDS011;2507;50.392;7.482;2022-12-24T01:24:00;9.83;;;2.47;;
4980;SDS011;2507;50.392;7.482;2022-12-24T01:26:26;9.13;;;3.00;;
4980;SDS011;2507;50.392;7.482;2022-12-24T01:28:52;13.30;;;2.37;;
4980;SDS011;2507;50.392;7.482;2022-12-24T01:31:17;6.03;;;2.13;;
4980;SDS011;2507;50.392;7.482;2022-12-24T01:33:44;9.70;;;2.90;;
4980;SDS011;2507;50.392;7.482;2022-12-24T01:36:11;13.90;;;2.40;;
4980;SDS011;2507;50.392;7.482;2022-12-24T01:38:37;9.40;;;2.30;;
4980;SDS011;2507;50.392;7.482;2022-12-24T01:41:02;11.63;;;2.83;;
4980;SDS011;2507;50.392;7.482;2022-12-24T01:43:47;9.03;;;2.57;;
4980;SDS011;2507;50.392;7.482;2022-12-24T01:46:17;17.53;;;2.53;;
4980;SDS011;2507;50.392;7.482;2022-12-24T01:49:00;10.63;;;3.17;;
4980;SDS011;2507;50.392;7.482;2022-12-24T01:51:38;10.10;;;2.53;;
4980;SDS011;2507;50.392;7.482;2022-12-24T01:54:08;8.13;;;2.50;;
4980;SDS011;2507;50.392;7.482;2022-12-24T01:56:36;10.57;;;3.17;;
4980;SDS011;2507;50.392;7.482;2022-12-24T01:59:07;7.50;;;2.17;;
4980;SDS011;2507;50.392;7.482;2022-12-24T02:01:35;8.13;;;2.53;;
4980;SDS011;2507;50.392;7.482;2022-12-24T02:04:02;14.87;;;3.07;;
4980;SDS011;2507;50.392;7.482;2022-12-24T02:06:35;8.33;;;2.70;;
4980;SDS011;2507;50.392;7.482;2022-12-24T02:09:01;14.13;;;2.60;;
4980;SDS011;2507;50.392;7.482;2022-12-24T02:11:27;10.03;;;2.97;;
4980;SDS011;2507;50.392;7.482;2022-12-24T02:13:57;7.90;;;2.60;;
4980;SDS011;2507;50.392;7.482;2022-12-24T02:16:40;10.60;;;3.03;;
4980;SDS011;2507;50.392;7.482;2022-12-24T02:30:21;10.10;;;3.00;;
4980;SDS011;2507;50.392;7.482;2022-12-24T02:33:00;23.60;;;3.73;;
4980;SDS011;2507;50.392;7.482;2022-12-24T02:40:50;14.50;;;2.80;;
4980;SDS011;2507;50.392;7.482;2022-12-24T02:43:20;8.90;;;2.67;;
4980;SDS011;2507;50.392;7.482;2022-12-24T02:45:58;10.50;;;2.80;;
4980;SDS011;2507;50.392;7.482;2022-12-24T02:48:29;11.77;;;3.53;;
4980;SDS011;2507;50.392;7.482;2022-12-24T02:51:00;13.63;;;2.97;;
4980;SDS011;2507;50.392;7.482;2022-12-24T02:53:27;12.13;;;3.50;;
4980;SDS011;2507;50.392;7.482;2022-12-24T02:55:57;9.47;;;2.90;;
4980;SDS011;2507;50.392;7.482;2022-12-24T03:04:43;9.87;;;2.70;;
4980;SDS011;2507;50.392;7.482;2022-12-24T03:07:12;7.53;;;3.10;;
4980;SDS011;2507;50.392;7.482;2022-12-24T03:09:48;13.73;;;3.03;;
4980;SDS011;2507;50.392;7.482;2022-12-24T03:12:22;12.63;;;3.00;;
4980;SDS011;2507;50.392;7.482;2022-12-24T03:14:52;12.27;;;2.83;;
4980;SDS011;2507;50.392;7.482;2022-12-24T03:17:18;12.70;;;3.33;;
4980;SDS011;2507;50.392;7.482;2022-12-24T03:19:44;14.00;;;3.13;;
4980;SDS011;2507;50.392;7.482;2022-12-24T03:22:11;9.90;;;2.73;;
4980;SDS011;2507;50.392;7.482;2022-12-24T03:24:37;11.90;;;2.60;;
4980;SDS011;2507;50.392;7.482;2022-12-24T03:27:03;7.23;;;2.47;;
4980;SDS011;2507;50.392;7.482;2022-12-24T03:29:30;11.93;;;2.50;;
4980;SDS011;2507;50.392;7.482;2022-12-24T03:32:01;8.60;;;2.93;;
4980;SDS011;2507;50.392;7.482;2022-12-24T03:34:28;8.30;;;2.33;;
4980;SDS011;2507;50.392;7.482;2022-12-24T03:36:54;12.20;;;2.80;;
4980;SDS011;2507;50.392;7.482;2022-12-24T03:39:19;12.33;;;2.90;;
4980;SDS011;2507;50.392;7.482;2022-12-24T03:41:45;6.50;;;2.43;;
4980;SDS011;2507;50.392;7.482;2022-12-24T03:44:10;14.03;;;3.33;;
4980;SDS011;2507;50.392;7.482;2022-12-24T03:46:35;11.70;;;2.70;;
4980;SDS011;2507;50.392;7.482;2022-12-24T03:49:00;11.17;;;3.20;;
4980;SDS011;2507;50.392;7.482;2022-12-24T03:51:26;6.90;;;1.97;;
4980;SDS011;2507;50.392;7.482;2022-12-24T03:53:52;14.30;;;2.50;;
4980;SDS011;2507;50.392;7.482;2022-12-24T03:56:21;13.40;;;2.70;;
4980;SDS011;2507;50.392;7.482;2022-12-24T03:58:47;11.63;;;2.93;;
4980;SDS011;2507;50.392;7.482;2022-12-24T04:01:12;8.10;;;2.40;;
4980;SDS011;2507;50.392;7.482;2022-12-24T04:03:38;7.00;;;2.10;;
4980;SDS011;2507;50.392;7.482;2022-12-24T04:06:07;6.40;;;1.83;;
4980;SDS011;2507;50.392;7.482;2022-12-24T04:08:34;10.07;;;2.43;;
4980;SDS011;2507;50.392;7.482;2022-12-24T04:11:00;4.87;;;2.10;;
4980;SDS011;2507;50.392;7.482;2022-12-24T04:13:25;6.23;;;2.37;;
4980;SDS011;2507;50.392;7.482;2022-12-24T04:16:01;8.93;;;1.83;;
4980;SDS011;2507;50.392;7.482;2022-12-24T04:18:28;5.13;;;1.67;;
4980;SDS011;2507;50.392;7.482;2022-12-24T04:20:53;5.67;;;2.03;;
4980;SDS011;2507;50.392;7.482;2022-12-24T04:23:19;7.40;;;1.70;;
4980;SDS011;2507;50.392;7.482;2022-12-24T04:25:45;6.60;;;1.97;;
4980;SDS011;2507;50.392;7.482;2022-12-24T04:28:11;6.20;;;1.77;;
4980;SDS011;2507;50.392;7.482;2022-12-24T04:30:37;6.30;;;2.27;;
4980;SDS011;2507;50.392;7.482;2022-12-24T04:33:03;11.20;;;2.30;;
4980;SDS011;2507;50.392;7.482;2022-12-24T04:35:29;9.90;;;3.17;;
4980;SDS011;2507;50.392;7.482;2022-12-24T04:37:54;8.57;;;2.80;;
4980;SDS011;2507;50.392;7.482;2022-12-24T04:40:20;10.10;;;2.80;;
4980;SDS011;2507;50.392;7.482;2022-12-24T04:42:45;14.37;;;3.47;;
4980;SDS011;2507;50.392;7.482;2022-12-24T04:45:10;12.63;;;3.03;;
4980;SDS011;2507;50.392;7.482;2022-12-24T04:47:36;9.70;;;3.87;;
4980;SDS011;2507;50.392;7.482;2022-12-24T04:50:01;11.10;;;2.47;;
4980;SDS011;2507;50.392;7.482;2022-12-24T04:52:26;14.73;;;3.00;;
4980;SDS011;2507;50.392;7.482;2022-12-24T04:54:52;6.80;;;2.70;;
4980;SDS011;2507;50.392;7.482;2022-12-24T04:57:17;9.70;;;2.63;;
4980;SDS011;2507;50.392;7.482;2022-12-24T04:59:42;11.97;;;3.53;;
4980;SDS011;2507;50.392;7.482;2022-12-24T05:02:08;11.40;;;3.20;;
4980;SDS011;2507;50.392;7.482;2022-12-24T05:04:33;14.27;;;3.00;;
4980;SDS011;2507;50.392;7.482;2022-12-24T05:06:58;8.30;;;2.70;;
4980;SDS011;2507;50.392;7.482;2022-12-24T05:09:24;11.10;;;3.03;;
4980;SDS011;2507;50.392;7.482;2022-12-24T05:11:49;10.37;;;3.10;;
4980;SDS011;2507;50.392;7.482;2022-12-24T05:14:14;16.33;;;3.23;;
4980;SDS011;2507;50.392;7.482;2022-12-24T05:16:40;12.17;;;3.40;;
4980;SDS011;2507;50.392;7.482;2022-12-24T05:19:05;14.50;;;3.67;;
4980;SDS011;2507;50.392;7.482;2022-12-24T05:21:30;11.67;;;3.33;;
4980;SDS011;2507;50.392;7.482;2022-12-24T05:23:55;16.80;;;3.53;;
4980;SDS011;2507;50.392;7.482;2022-12-24T05:26:43;14.50;;;3.77;;
4980;SDS011;2507;50.392;7.482;2022-12-24T05:29:12;13.07;;;3.90;;
4980;SDS011;2507;50.392;7.482;2022-12-24T05:31:37;11.20;;;2.93;;
4980;SDS011;2507;50.392;7.482;2022-12-24T05:34:04;14.37;;;2.57;;
4980;SDS011;2507;50.392;7.482;2022-12-24T05:36:30;8.40;;;2.87;;
4980;SDS011;2507;50.392;7.482;2022-12-24T05:38:55;12.57;;;3.00;;
4980;SDS011;2507;50.392;7.482;2022-12-24T05:41:21;12.93;;;3.10;;
4980;SDS011;2507;50.392;7.482;2022-12-24T05:43:46;11.43;;;3.13;;
4980;SDS011;2507;50.392;7.482;2022-12-24T05:46:12;20.77;;;3.43;;
4980;SDS011;2507;50.392;7.482;2022-12-24T05:48:39;13.30;;;3.13;;
4980;SDS011;2507;50.392;7.482;2022-12-24T05:51:06;14.37;;;3.47;;
4980;SDS011;2507;50.392;7.482;2022-12-24T05:53:33;17.33;;;3.13;;
4980;SDS011;2507;50.392;7.482;2022-12-24T05:56:03;13.07;;;4.30;;
4980;SDS011;2507;50.392;7.482;2022-12-24T05:58:32;11.50;;;3.23;;
4980;SDS011;2507;50.392;7.482;2022-12-24T06:00:59;11.67;;;3.13;;
4980;SDS011;2507;50.392;7.482;2022-12-24T06:03:25;9.80;;;3.40;;
4980;SDS011;2507;50.392;7.482;2022-12-24T06:06:01;10.03;;;2.90;;
4980;SDS011;2507;50.392;7.482;2022-12-24T06:08:27;24.70;;;4.37;;
4980;SDS011;2507;50.392;7.482;2022-12-24T06:10:54;13.03;;;3.57;;
4980;SDS011;2507;50.392;7.482;2022-12-24T06:13:20;22.03;;;3.30;;
4980;SDS011;2507;50.392;7.482;2022-12-24T06:15:46;13.57;;;3.00;;
4980;SDS011;2507;50.392;7.482;2022-12-24T06:18:11;16.47;;;3.50;;
4980;SDS011;2507;50.392;7.482;2022-12-24T06:20:36;12.50;;;3.37;;
4980;SDS011;2507;50.392;7.482;2022-12-24T06:23:01;12.90;;;2.93;;
4980;SDS011;2507;50.392;7.482;2022-12-24T06:25:27;11.83;;;3.20;;
4980;SDS011;2507;50.392;7.482;2022-12-24T06:27:52;18.93;;;3.57;;
4980;SDS011;2507;50.392;7.482;2022-12-24T06:30:17;15.60;;;3.87;;
4980;SDS011;2507;50.392;7.482;2022-12-24T06:32:42;9.80;;;3.40;;
4980;SDS011;2507;50.392;7.482;2022-12-24T06:35:08;17.60;;;3.40;;
4980;SDS011;2507;50.392;7.482;2022-12-24T06:37:33;13.90;;;3.20;;
4980;SDS011;2507;50.392;7.482;2022-12-24T06:39:58;9.87;;;2.63;;
4980;SDS011;2507;50.392;7.482;2022-12-24T06:42:23;9.77;;;2.77;;
4980;SDS011;2507;50.392;7.482;2022-12-24T06:44:49;8.73;;;3.10;;
4980;SDS011;2507;50.392;7.482;2022-12-24T06:47:14;12.90;;;3.30;;
4980;SDS011;2507;50.392;7.482;2022-12-24T06:49:39;12.57;;;3.43;;
4980;SDS011;2507;50.392;7.482;2022-12-24T06:52:04;12.37;;;3.20;;
4980;SDS011;2507;50.392;7.482;2022-12-24T06:54:30;15.53;;;3.80;;
4980;SDS011;2507;50.392;7.482;2022-12-24T06:56:55;11.50;;;3.17;;
4980;SDS011;2507;50.392;7.482;2022-12-24T06:59:20;12.13;;;3.97;;
4980;SDS011;2507;50.392;7.482;2022-12-24T07:01:45;12.73;;;3.80;;
4980;SDS011;2507;50.392;7.482;2022-12-24T07:04:11;8.90;;;2.70;;
4980;SDS011;2507;50.392;7.482;2022-12-24T07:06:36;13.50;;;3.60;;
4980;SDS011;2507;50.392;7.482;2022-12-24T07:09:01;10.17;;;3.13;;
4980;SDS011;2507;50.392;7.482;2022-12-24T07:11:27;14.13;;;3.50;;
4980;SDS011;2507;50.392;7.482;2022-12-24T07:13:52;16.60;;;3.10;;
4980;SDS011;2507;50.392;7.482;2022-12-24T07:16:17;17.30;;;3.93;;
4980;SDS011;2507;50.392;7.482;2022-12-24T07:18:43;19.27;;;3.70;;
4980;SDS011;2507;50.392;7.482;2022-12-24T07:21:08;15.37;;;3.00;;
4980;SDS011;2507;50.392;7.482;2022-12-24T07:23:34;12.80;;;3.00;;
4980;SDS011;2507;50.392;7.482;2022-12-24T07:26:00;14.70;;;3.60;;
4980;SDS011;2507;50.392;7.482;2022-12-24T07:28:27;13.00;;;3.07;;
4980;SDS011;2507;50.392;7.482;2022-12-24T07:30:54;11.50;;;3.60;;
4980;SDS011;2507;50.392;7.482;2022-12-24T07:33:20;10.33;;;2.90;;
4980;SDS011;2507;50.392;7.482;2022-12-24T07:35:45;10.97;;;3.60;;
4980;SDS011;2507;50.392;7.482;2022-12-24T07:38:11;11.13;;;3.27;;
4980;SDS011;2507;50.392;7.482;2022-12-24T07:40:36;13.20;;;3.97;;
4980;SDS011;2507;50.392;7.482;2022-12-24T07:43:01;11.20;;;3.73;;
4980;SDS011;2507;50.392;7.482;2022-12-24T07:45:27;11.37;;;3.87;;
4980;SDS011;2507;50.392;7.482;2022-12-24T07:47:52;18.27;;;4.10;;
4980;SDS011;2507;50.392;7.482;2022-12-24T07:50:17;8.23;;;2.90;;
4980;SDS011;2507;50.392;7.482;2022-12-24T07:52:42;11.30;;;3.33;;
4980;SDS011;2507;50.392;7.482;2022-12-24T07:55:08;14.10;;;2.80;;
4980;SDS011;2507;50.392;7.482;2022-12-24T07:57:33;7.90;;;3.20;;
4980;SDS011;2507;50.392;7.482;2022-12-24T07:59:58;8.30;;;2.30;;
4980;SDS011;2507;50.392;7.482;2022-12-24T08:02:24;11.30;;;2.60;;
4980;SDS011;2507;50.392;7.482;2022-12-24T08:04:49;10.80;;;2.73;;
4980;SDS011;2507;50.392;7.482;2022-12-24T08:07:14;7.73;;;2.33;;
4980;SDS011;2507;50.392;7.482;2022-12-24T08:09:39;10.03;;;2.27;;
4980;SDS011;2507;50.392;7.482;2022-12-24T08:12:05;7.43;;;1.83;;
4980;SDS011;2507;50.392;7.482;2022-12-24T08:14:30;9.70;;;2.60;;
4980;SDS011;2507;50.392;7.482;2022-12-24T08:16:56;7.77;;;2.70;;
4980;SDS011;2507;50.392;7.482;2022-12-24T08:19:22;7.47;;;2.20;;
4980;SDS011;2507;50.392;7.482;2022-12-24T08:21:47;7.13;;;2.17;;
4980;SDS011;2507;50.392;7.482;2022-12-24T08:24:13;8.20;;;2.33;;
4980;SDS011;2507;50.392;7.482;2022-12-24T08:26:38;11.47;;;3.77;;
4980;SDS011;2507;50.392;7.482;2022-12-24T08:29:03;10.93;;;3.13;;
4980;SDS011;2507;50.392;7.482;2022-12-24T08:31:29;12.97;;;3.13;;
4980;SDS011;2507;50.392;7.482;2022-12-24T08:33:54;14.67;;;3.33;;
4980;SDS011;2507;50.392;7.482;2022-12-24T08:36:20;14.93;;;3.27;;
4980;SDS011;2507;50.392;7.482;2022-12-24T08:38:45;8.13;;;3.00;;
4980;SDS011;2507;50.392;7.482;2022-12-24T08:41:11;11.33;;;4.03;;
4980;SDS011;2507;50.392;7.482;2022-12-24T08:43:36;16.10;;;4.30;;
4980;SDS011;2507;50.392;7.482;2022-12-24T08:46:02;13.13;;;3.83;;
4980;SDS011;2507;50.392;7.482;2022-12-24T08:48:29;18.43;;;4.73;;
4980;SDS011;2507;50.392;7.482;2022-12-24T08:50:55;16.17;;;4.53;;
4980;SDS011;2507;50.392;7.482;2022-12-24T08:53:20;14.00;;;4.20;;
4980;SDS011;2507;50.392;7.482;2022-12-24T08:55:45;10.50;;;4.50;;
4980;SDS011;2507;50.392;7.482;2022-12-24T08:58:10;12.73;;;4.70;;
4980;SDS011;2507;50.392;7.482;2022-12-24T09:00:36;9.60;;;4.27;;
4980;SDS011;2507;50.392;7.482;2022-12-24T09:03:02;10.10;;;3.10;;
4980;SDS011;2507;50.392;7.482;2022-12-24T09:05:27;10.07;;;2.23;;
4980;SDS011;2507;50.392;7.482;2022-12-24T09:07:53;7.60;;;2.33;;
4980;SDS011;2507;50.392;7.482;2022-12-24T09:10:18;7.90;;;3.10;;
4980;SDS011;2507;50.392;7.482;2022-12-24T09:12:44;6.47;;;2.40;;
4980;SDS011;2507;50.392;7.482;2022-12-24T09:15:09;8.00;;;2.20;;
4980;SDS011;2507;50.392;7.482;2022-12-24T09:17:35;7.10;;;2.30;;
4980;SDS011;2507;50.392;7.482;2022-12-24T09:20:00;5.60;;;2.10;;
4980;SDS011;2507;50.392;7.482;2022-12-24T09:22:25;6.30;;;1.93;;
4980;SDS011;2507;50.392;7.482;2022-12-24T09:24:54;9.43;;;2.50;;
4980;SDS011;2507;50.392;7.482;2022-12-24T09:27:20;7.50;;;2.83;;
4980;SDS011;2507;50.392;7.482;2022-12-24T09:29:45;9.40;;;2.70;;
4980;SDS011;2507;50.392;7.482;2022-12-24T09:32:10;5.50;;;2.30;;
4980;SDS011;2507;50.392;7.482;2022-12-24T09:34:35;5.60;;;2.07;;
4980;SDS011;2507;50.392;7.482;2022-12-24T09:37:01;6.63;;;2.10;;
4980;SDS011;2507;50.392;7.482;2022-12-24T09:39:27;8.23;;;2.63;;
4980;SDS011;2507;50.392;7.482;2022-12-24T09:42:16;7.13;;;2.77;;
4980;SDS011;2507;50.392;7.482;2022-12-24T09:44:57;8.00;;;2.47;;
4980;SDS011;2507;50.392;7.482;2022-12-24T09:47:41;8.50;;;2.70;;
4980;SDS011;2507;50.392;7.482;2022-12-24T09:50:20;6.07;;;2.73;;
4980;SDS011;2507;50.392;7.482;2022-12-24T09:53:03;4.77;;;2.13;;
4980;SDS011;2507;50.392;7.482;2022-12-24T09:55:45;6.83;;;2.60;;
4980;SDS011;2507;50.392;7.482;2022-12-24T09:58:24;13.37;;;2.93;;
4980;SDS011;2507;50.392;7.482;2022-12-24T10:00:55;5.40;;;2.40;;
4980;SDS011;2507;50.392;7.482;2022-12-24T10:03:21;10.97;;;3.50;;
4980;SDS011;2507;50.392;7.482;2022-12-24T10:05:50;8.50;;;2.83;;
4980;SDS011;2507;50.392;7.482;2022-12-24T10:08:55;7.17;;;2.67;;
4980;SDS011;2507;50.392;7.482;2022-12-24T10:12:06;10.80;;;3.50;;
4980;SDS011;2507;50.392;7.482;2022-12-24T10:20:29;4.20;;;2.63;;
4980;SDS011;2507;50.392;7.482;2022-12-24T10:28:50;5.80;;;2.30;;
4980;SDS011;2507;50.392;7.482;2022-12-24T10:31:22;10.80;;;2.40;;
4980;SDS011;2507;50.392;7.482;2022-12-24T10:33:56;10.13;;;3.20;;
4980;SDS011;2507;50.392;7.482;2022-12-24T10:36:28;8.40;;;2.90;;
4980;SDS011;2507;50.392;7.482;2022-12-24T10:38:54;10.30;;;3.03;;
4980;SDS011;2507;50.392;7.482;2022-12-24T10:41:20;11.10;;;3.00;;
4980;SDS011;2507;50.392;7.482;2022-12-24T10:43:46;7.40;;;3.27;;
4980;SDS011;2507;50.392;7.482;2022-12-24T10:46:17;8.30;;;3.97;;
4980;SDS011;2507;50.392;7.482;2022-12-24T10:51:36;12.40;;;4.27;;
4980;SDS011;2507;50.392;7.482;2022-12-24T10:54:16;12.03;;;4.20;;
4980;SDS011;2507;50.392;7.482;2022-12-24T10:56:48;7.73;;;2.80;;
4980;SDS011;2507;50.392;7.482;2022-12-24T11:04:51;6.90;;;3.30;;
4980;SDS011;2507;50.392;7.482;2022-12-24T11:07:18;6.07;;;2.63;;
4980;SDS011;2507;50.392;7.482;2022-12-24T11:09:53;8.87;;;2.77;;
4980;SDS011;2507;50.392;7.482;2022-12-24T11:12:21;10.30;;;3.20;;
4980;SDS011;2507;50.392;7.482;2022-12-24T11:14:58;14.40;;;2.80;;
4980;SDS011;2507;50.392;7.482;2022-12-24T11:17:25;12.40;;;4.17;;
4980;SDS011;2507;50.392;7.482;2022-12-24T11:19:50;10.80;;;3.40;;
4980;SDS011;2507;50.392;7.482;2022-12-24T11:22:26;8.00;;;2.80;;
4980;SDS011;2507;50.392;7.482;2022-12-24T11:24:57;14.03;;;4.60;;
4980;SDS011;2507;50.392;7.482;2022-12-24T11:27:28;10.40;;;3.40;;
4980;SDS011;2507;50.392;7.482;2022-12-24T11:35:06;9.00;;;2.93;;
4980;SDS011;2507;50.392;7.482;2022-12-24T11:37:33;12.50;;;4.07;;
4980;SDS011;2507;50.392;7.482;2022-12-24T11:39:59;10.27;;;2.63;;
4980;SDS011;2507;50.392;7.482;2022-12-24T11:42:32;12.57;;;4.27;;
4980;SDS011;2507;50.392;7.482;2022-12-24T11:45:01;12.73;;;3.40;;
4980;SDS011;2507;50.392;7.482;2022-12-24T11:47:33;10.63;;;3.60;;
4980;SDS011;2507;50.392;7.482;2022-12-24T11:52:47;13.03;;;3.93;;
4980;SDS011;2507;50.392;7.482;2022-12-24T11:55:20;13.57;;;3.80;;
4980;SDS011;2507;50.392;7.482;2022-12-24T11:57:56;11.13;;;3.33;;
4980;SDS011;2507;50.392;7.482;2022-12-24T12:00:26;10.20;;;3.00;;
4980;SDS011;2507;50.392;7.482;2022-12-24T12:02:53;13.27;;;3.50;;
4980;SDS011;2507;50.392;7.482;2022-12-24T12:05:22;11.00;;;3.00;;
4980;SDS011;2507;50.392;7.482;2022-12-24T12:07:52;15.70;;;3.33;;
4980;SDS011;2507;50.392;7.482;2022-12-24T12:10:29;9.60;;;3.30;;
4980;SDS011;2507;50.392;7.482;2022-12-24T12:16:13;14.70;;;3.80;;
4980;SDS011;2507;50.392;7.482;2022-12-24T12:18:46;14.20;;;3.70;;
4980;SDS011;2507;50.392;7.482;2022-12-24T12:21:18;7.63;;;2.70;;
4980;SDS011;2507;50.392;7.482;2022-12-24T12:23:51;10.93;;;3.40;;
4980;SDS011;2507;50.392;7.482;2022-12-24T12:26:27;17.23;;;4.50;;
4980;SDS011;2507;50.392;7.482;2022-12-24T12:28:58;13.80;;;3.43;;
4980;SDS011;2507;50.392;7.482;2022-12-24T12:34:12;10.90;;;3.43;;
4980;SDS011;2507;50.392;7.482;2022-12-24T12:36:56;10.67;;;3.37;;
4980;SDS011;2507;50.392;7.482;2022-12-24T12:39:25;8.00;;;2.77;;
4980;SDS011;2507;50.392;7.482;2022-12-24T12:44:36;12.13;;;3.57;;
4980;SDS011;2507;50.392;7.482;2022-12-24T12:50:08;18.30;;;10.03;;
4980;SDS011;2507;50.392;7.482;2022-12-24T12:58:29;50.83;;;25.50;;
4980;SDS011;2507;50.392;7.482;2022-12-24T13:01:00;56.50;;;27.13;;
4980;SDS011;2507;50.392;7.482;2022-12-24T13:07:01;15.77;;;7.80;;
4980;SDS011;2507;50.392;7.482;2022-12-24T13:20:46;9.90;;;3.07;;
4980;SDS011;2507;50.392;7.482;2022-12-24T13:23:14;9.27;;;3.13;;
4980;SDS011;2507;50.392;7.482;2022-12-24T13:25:43;13.00;;;4.10;;
4980;SDS011;2507;50.392;7.482;2022-12-24T13:28:14;9.80;;;3.10;;
4980;SDS011;2507;50.392;7.482;2022-12-24T13:30:40;12.90;;;3.53;;
4980;SDS011;2507;50.392;7.482;2022-12-24T13:33:08;10.67;;;3.40;;
4980;SDS011;2507;50.392;7.482;2022-12-24T13:35:36;11.13;;;3.87;;
4980;SDS011;2507;50.392;7.482;2022-12-24T13:40:53;11.37;;;3.60;;
4980;SDS011;2507;50.392;7.482;2022-12-24T13:43:19;15.10;;;4.20;;
4980;SDS011;2507;50.392;7.482;2022-12-24T13:45:46;11.77;;;4.37;;
4980;SDS011;2507;50.392;7.482;2022-12-24T13:48:22;13.53;;;3.60;;
4980;SDS011;2507;50.392;7.482;2022-12-24T13:50:57;15.37;;;3.87;;
4980;SDS011;2507;50.392;7.482;2022-12-24T13:58:19;12.10;;;4.00;;
4980;SDS011;2507;50.392;7.482;2022-12-24T14:03:29;10.47;;;3.87;;
4980;SDS011;2507;50.392;7.482;2022-12-24T14:05:59;10.50;;;3.40;;
4980;SDS011;2507;50.392;7.482;2022-12-24T14:08:31;11.10;;;3.07;;
4980;SDS011;2507;50.392;7.482;2022-12-24T14:11:12;14.10;;;3.63;;
4980;SDS011;2507;50.392;7.482;2022-12-24T14:16:03;13.13;;;3.23;;
4980;SDS011;2507;50.392;7.482;2022-12-24T14:18:34;8.77;;;3.00;;
4980;SDS011;2507;50.392;7.482;2022-12-24T14:21:03;16.83;;;7.33;;
4980;SDS011;2507;50.392;7.482;2022-12-24T14:26:02;10.73;;;3.70;;
4980;SDS011;2507;50.392;7.482;2022-12-24T14:28:33;14.03;;;3.53;;
4980;SDS011;2507;50.392;7.482;2022-12-24T14:31:04;12.83;;;3.87;;
4980;SDS011;2507;50.392;7.482;2022-12-24T14:33:37;13.93;;;4.17;;
4980;SDS011;2507;50.392;7.482;2022-12-24T14:36:02;14.10;;;3.37;;
4980;SDS011;2507;50.392;7.482;2022-12-24T14:38:28;6.87;;;2.87;;
4980;SDS011;2507;50.392;7.482;2022-12-24T14:46:21;12.70;;;3.50;;
4980;SDS011;2507;50.392;7.482;2022-12-24T14:55:25;12.77;;;4.10;;
4980;SDS011;2507;50.392;7.482;2022-12-24T15:00:56;12.97;;;5.37;;
4980;SDS011;2507;50.392;7.482;2022-12-24T15:03:43;14.27;;;5.43;;
4980;SDS011;2507;50.392;7.482;2022-12-24T15:06:09;13.50;;;5.10;;
4980;SDS011;2507;50.392;7.482;2022-12-24T15:08:38;15.63;;;5.73;;
4980;SDS011;2507;50.392;7.482;2022-12-24T15:11:08;15.83;;;7.03;;
4980;SDS011;2507;50.392;7.482;2022-12-24T15:13:39;11.57;;;3.30;;
4980;SDS011;2507;50.392;7.482;2022-12-24T15:16:10;14.77;;;4.87;;
4980;SDS011;2507;50.392;7.482;2022-12-24T15:18:40;20.00;;;4.20;;
4980;SDS011;2507;50.392;7.482;2022-12-24T15:21:13;16.67;;;4.30;;
4980;SDS011;2507;50.392;7.482;2022-12-24T15:23:44;17.07;;;5.00;;
4980;SDS011;2507;50.392;7.482;2022-12-24T15:26:24;13.63;;;4.80;;
4980;SDS011;2507;50.392;7.482;2022-12-24T15:28:49;18.23;;;5.00;;
4980;SDS011;2507;50.392;7.482;2022-12-24T15:31:16;11.47;;;4.43;;
4980;SDS011;2507;50.392;7.482;2022-12-24T15:33:48;16.17;;;4.50;;
4980;SDS011;2507;50.392;7.482;2022-12-24T15:36:15;16.47;;;5.17;;
4980;SDS011;2507;50.392;7.482;2022-12-24T15:38:49;24.37;;;6.77;;
4980;SDS011;2507;50.392;7.482;2022-12-24T15:43:46;12.50;;;4.33;;
4980;SDS011;2507;50.392;7.482;2022-12-24T15:46:16;14.50;;;4.20;;
4980;SDS011;2507;50.392;7.482;2022-12-24T15:48:52;20.10;;;4.63;;
4980;SDS011;2507;50.392;7.482;2022-12-24T15:51:25;16.47;;;4.93;;
4980;SDS011;2507;50.392;7.482;2022-12-24T15:53:56;17.20;;;4.90;;
4980;SDS011;2507;50.392;7.482;2022-12-24T15:56:41;10.43;;;4.20;;
4980;SDS011;2507;50.392;7.482;2022-12-24T15:59:12;14.37;;;4.50;;
4980;SDS011;2507;50.392;7.482;2022-12-24T16:01:49;17.10;;;4.80;;
4980;SDS011;2507;50.392;7.482;2022-12-24T16:04:16;11.33;;;4.43;;
4980;SDS011;2507;50.392;7.482;2022-12-24T16:06:54;13.90;;;4.30;;
4980;SDS011;2507;50.392;7.482;2022-12-24T16:12:37;12.97;;;4.67;;
4980;SDS011;2507;50.392;7.482;2022-12-24T16:15:02;12.07;;;4.07;;
4980;SDS011;2507;50.392;7.482;2022-12-24T16:17:28;23.17;;;7.30;;
4980;SDS011;2507;50.392;7.482;2022-12-24T16:19:58;19.30;;;5.30;;
4980;SDS011;2507;50.392;7.482;2022-12-24T16:22:27;21.40;;;4.47;;
4980;SDS011;2507;50.392;7.482;2022-12-24T16:24:59;14.37;;;4.60;;
4980;SDS011;2507;50.392;7.482;2022-12-24T16:27:27;15.10;;;4.87;;
4980;SDS011;2507;50.392;7.482;2022-12-24T16:29:52;22.00;;;4.80;;
4980;SDS011;2507;50.392;7.482;2022-12-24T16:32:35;18.33;;;5.30;;
4980;SDS011;2507;50.392;7.482;2022-12-24T16:35:03;14.70;;;5.20;;
4980;SDS011;2507;50.392;7.482;2022-12-24T16:37:30;12.57;;;4.27;;
4980;SDS011;2507;50.392;7.482;2022-12-24T16:39:56;13.40;;;4.40;;
4980;SDS011;2507;50.392;7.482;2022-12-24T16:42:21;18.67;;;5.73;;
4980;SDS011;2507;50.392;7.482;2022-12-24T16:45:05;16.87;;;4.50;;
4980;SDS011;2507;50.392;7.482;2022-12-24T16:47:31;11.07;;;4.40;;
4980;SDS011;2507;50.392;7.482;2022-12-24T16:49:58;25.27;;;4.37;;
4980;SDS011;2507;50.392;7.482;2022-12-24T16:52:28;18.13;;;4.70;;
4980;SDS011;2507;50.392;7.482;2022-12-24T16:54:55;14.20;;;4.53;;
4980;SDS011;2507;50.392;7.482;2022-12-24T16:57:21;24.00;;;5.80;;
4980;SDS011;2507;50.392;7.482;2022-12-24T16:59:48;15.00;;;4.73;;
4980;SDS011;2507;50.392;7.482;2022-12-24T17:02:14;17.17;;;4.73;;
4980;SDS011;2507;50.392;7.482;2022-12-24T17:04:41;24.10;;;8.03;;
4980;SDS011;2507;50.392;7.482;2022-12-24T17:07:08;14.77;;;5.57;;
4980;SDS011;2507;50.392;7.482;2022-12-24T17:09:34;13.50;;;4.90;;
4980;SDS011;2507;50.392;7.482;2022-12-24T17:11:59;17.00;;;4.90;;